Time;durP1;ratioP1;P1;durP2;ratioP2;P2;SDS_P1;SDS_P2;PMS_P1;PMS_P2;Temp;Humidity;BMP_temperature;BMP_pressure;BME280_temperature;BME280_humidity;BME280_pressure;Samples;Min_cycle;Max_cycle;Signal;HPM_P1;HPM_P2
2022/08/24 00:02:20;;;;;;;1.87;1.73;;;18.40;99.90;;;;;;6253669;28;20224;-64
2022/08/24 00:05:23;;;;;;;1.77;1.67;;;18.40;99.90;;;;;;6254021;28;20252;-64
2022/08/24 00:08:27;;;;;;;1.83;1.73;;;18.30;99.90;;;;;;6252412;28;20752;-64
2022/08/24 00:11:30;;;;;;;5.93;1.50;;;18.30;99.90;;;;;;6251211;28;20256;-65
2022/08/24 00:14:34;;;;;;;2.00;1.70;;;18.20;99.90;;;;;;6246912;28;20224;-65
2022/08/24 00:17:39;;;;;;;2.23;2.03;;;18.20;99.90;;;;;;6236775;28;20238;-65
2022/08/24 00:20:42;;;;;;;1.93;1.80;;;18.10;99.90;;;;;;6242228;28;20224;-65
2022/08/24 00:23:48;;;;;;;2.93;1.73;;;18.10;99.90;;;;;;6241416;28;20229;-65
2022/08/24 00:26:52;;;;;;;2.30;1.80;;;18.10;99.90;;;;;;6235630;28;20671;-65
2022/08/24 00:29:55;;;;;;;1.67;1.57;;;18.10;99.90;;;;;;6232781;28;20227;-65
2022/08/24 00:33:00;;;;;;;1.40;1.30;;;18.00;99.90;;;;;;6234327;28;21462;-65
2022/08/24 00:36:04;;;;;;;1.63;1.50;;;18.00;99.90;;;;;;6239404;28;20224;-65
2022/08/24 00:39:08;;;;;;;1.60;1.50;;;18.00;99.90;;;;;;6227213;28;20844;-65
2022/08/24 00:42:12;;;;;;;1.87;1.73;;;18.00;99.90;;;;;;6226222;28;20511;-65
2022/08/24 00:45:16;;;;;;;1.77;1.57;;;17.90;99.90;;;;;;6226117;28;20499;-65
2022/08/24 00:48:28;;;;;;;1.70;1.60;;;17.90;99.90;;;;;;6226194;28;20367;-65
2022/08/24 00:51:37;;;;;;;2.33;2.13;;;17.80;99.90;;;;;;6225794;28;20576;-65
2022/08/24 00:54:45;;;;;;;2.00;1.80;;;17.80;99.90;;;;;;6229552;28;20237;-65
2022/08/24 00:57:52;;;;;;;2.40;2.17;;;17.80;99.90;;;;;;6229881;28;20594;-65
2022/08/24 01:00:59;;;;;;;2.30;1.87;;;17.80;99.90;;;;;;6230623;28;20218;-65
2022/08/24 01:04:05;;;;;;;1.93;1.70;;;17.80;99.90;;;;;;6230778;28;20220;-65
2022/08/24 01:07:08;;;;;;;1.93;1.77;;;17.70;99.90;;;;;;6230764;28;20467;-65
2022/08/24 01:10:15;;;;;;;3.37;1.73;;;17.70;99.90;;;;;;6230419;28;20762;-65
2022/08/24 01:13:19;;;;;;;2.10;1.90;;;17.70;99.90;;;;;;6229315;28;20978;-64
2022/08/24 01:19:44;;;;;;;1.50;1.40;;;17.60;99.90;;;;;;6253086;28;20947;-64
2022/08/24 01:23:00;;;;;;;2.40;1.53;;;17.60;99.90;;;;;;6253803;28;20475;-64
2022/08/24 01:26:05;;;;;;;2.13;1.80;;;17.60;99.90;;;;;;6253930;28;20986;-64
2022/08/24 01:29:11;;;;;;;1.60;1.50;;;17.60;99.90;;;;;;6253982;28;20485;-64
2022/08/24 01:32:18;;;;;;;1.87;1.67;;;17.50;99.90;;;;;;6253410;28;20471;-65
2022/08/24 01:35:21;;;;;;;1.83;1.70;;;17.50;99.90;;;;;;6254132;28;20789;-65
2022/08/24 01:38:26;;;;;;;4.03;2.07;;;17.50;99.90;;;;;;6253549;28;20475;-65
2022/08/24 01:41:30;;;;;;;4.63;2.00;;;17.40;99.90;;;;;;6253976;28;20490;-65
2022/08/24 01:44:35;;;;;;;2.30;2.10;;;17.40;99.90;;;;;;6254151;28;20494;-65
2022/08/24 01:47:38;;;;;;;2.50;2.20;;;17.40;99.90;;;;;;6253979;28;20975;-65
2022/08/24 01:50:42;;;;;;;2.80;1.77;;;17.40;99.90;;;;;;6253892;28;20478;-65
2022/08/24 01:53:45;;;;;;;2.60;2.00;;;17.40;99.90;;;;;;6253273;28;20467;-65
2022/08/24 01:56:50;;;;;;;1.47;1.37;;;17.40;99.90;;;;;;6253480;28;20803;-65
2022/08/24 01:59:53;;;;;;;2.10;1.47;;;17.30;99.90;;;;;;6253189;28;20482;-65
2022/08/24 02:02:56;;;;;;;1.27;1.20;;;17.30;99.90;;;;;;6252318;28;20892;-65
2022/08/24 02:06:00;;;;;;;1.77;1.67;;;17.30;99.90;;;;;;6251805;28;20812;-65
2022/08/24 02:09:04;;;;;;;2.40;1.50;;;17.30;99.90;;;;;;6252542;28;20471;-65
2022/08/24 02:12:09;;;;;;;1.60;1.50;;;17.30;99.90;;;;;;6252545;28;20479;-65
2022/08/24 02:15:13;;;;;;;6.40;2.20;;;17.20;99.90;;;;;;6252601;28;20488;-65
2022/08/24 02:18:16;;;;;;;1.70;1.60;;;17.20;99.90;;;;;;6252739;28;20475;-65
2022/08/24 02:21:19;;;;;;;1.90;1.67;;;17.20;99.90;;;;;;6247626;28;20482;-65
2022/08/24 02:24:23;;;;;;;2.33;1.43;;;17.20;99.90;;;;;;6251617;28;20844;-65
2022/08/24 02:27:27;;;;;;;1.80;1.70;;;17.10;99.90;;;;;;6252000;28;20974;-65
2022/08/24 02:30:32;;;;;;;2.07;1.60;;;17.00;99.90;;;;;;6252092;28;21002;-64
2022/08/24 02:33:36;;;;;;;1.77;1.30;;;17.10;99.90;;;;;;6251952;28;20463;-64
2022/08/24 02:36:39;;;;;;;2.13;1.67;;;17.00;99.90;;;;;;6251729;28;20486;-65
2022/08/24 02:39:43;;;;;;;2.20;2.00;;;17.00;99.90;;;;;;6252589;28;20478;-65
2022/08/24 02:42:47;;;;;;;2.93;2.00;;;17.00;99.90;;;;;;6253184;28;20478;-64
2022/08/24 02:45:51;;;;;;;2.03;1.83;;;16.90;99.90;;;;;;6251608;28;20475;-64
2022/08/24 02:48:54;;;;;;;2.83;2.30;;;17.00;99.90;;;;;;6251961;28;20471;-65
2022/08/24 02:52:13;;;;;;;2.23;1.60;;;16.90;99.90;;;;;;6251730;28;20466;-65
2022/08/24 02:55:18;;;;;;;2.10;1.73;;;16.90;99.90;;;;;;6251666;28;20481;-65
2022/08/24 02:58:23;;;;;;;2.13;1.93;;;16.80;99.90;;;;;;6251102;28;20927;-65
2022/08/24 03:01:28;;;;;;;4.50;1.77;;;16.90;99.90;;;;;;6251224;28;20459;-65
2022/08/24 03:04:32;;;;;;;2.20;2.03;;;16.90;99.90;;;;;;6251645;28;20486;-65
2022/08/24 03:07:35;;;;;;;1.90;1.80;;;16.80;99.90;;;;;;6251870;28;20479;-65
2022/08/24 03:10:39;;;;;;;9.00;1.97;;;16.80;99.90;;;;;;6251765;28;20781;-65
2022/08/24 03:13:43;;;;;;;1.70;1.60;;;16.80;99.90;;;;;;6252648;28;20464;-65
2022/08/24 03:16:46;;;;;;;2.53;1.93;;;16.80;99.90;;;;;;6251274;28;20550;-65
2022/08/24 03:19:50;;;;;;;2.27;1.67;;;16.70;99.90;;;;;;6251666;28;20964;-65
2022/08/24 03:22:53;;;;;;;1.97;1.50;;;16.70;99.90;;;;;;6251570;28;20981;-65
2022/08/24 03:25:57;;;;;;;1.63;1.53;;;16.70;99.90;;;;;;6251362;28;20496;-65
2022/08/24 03:29:01;;;;;;;1.83;1.73;;;16.70;99.90;;;;;;6252677;28;20463;-65
2022/08/24 03:32:05;;;;;;;1.77;1.67;;;16.70;99.90;;;;;;6252667;28;20483;-65
2022/08/24 03:35:09;;;;;;;1.57;1.40;;;16.70;99.90;;;;;;6252087;28;20479;-64
2022/08/24 03:38:12;;;;;;;1.83;1.50;;;16.60;99.90;;;;;;6250109;28;20483;-64
2022/08/24 03:41:16;;;;;;;2.83;1.47;;;16.70;99.90;;;;;;6251023;28;20471;-65
2022/08/24 03:44:23;;;;;;;1.27;1.10;;;16.60;99.90;;;;;;6250199;28;20506;-65
2022/08/24 03:47:27;;;;;;;2.43;1.70;;;16.70;99.90;;;;;;6250636;28;20482;-65
2022/08/24 03:50:30;;;;;;;1.83;1.53;;;16.70;99.90;;;;;;6250193;28;20578;-66
2022/08/24 03:53:33;;;;;;;1.60;1.50;;;16.70;99.90;;;;;;6250239;28;20486;-66
2022/08/24 03:56:40;;;;;;;2.57;1.87;;;16.60;99.90;;;;;;6250275;28;20483;-65
2022/08/24 03:59:44;;;;;;;1.30;1.20;;;16.60;99.90;;;;;;6250509;28;20477;-65
2022/08/24 04:02:48;;;;;;;1.77;1.50;;;16.50;99.90;;;;;;6250109;28;20693;-65
2022/08/24 04:05:51;;;;;;;1.73;1.63;;;16.50;99.90;;;;;;6250961;28;20478;-64
2022/08/24 04:08:55;;;;;;;1.90;1.50;;;16.50;99.90;;;;;;6251492;28;20566;-64
2022/08/24 04:11:58;;;;;;;2.67;1.60;;;16.50;99.90;;;;;;6251772;28;20496;-64
2022/08/24 04:15:03;;;;;;;1.70;1.60;;;16.50;99.90;;;;;;6251363;28;20478;-64
2022/08/24 04:18:07;;;;;;;1.40;1.30;;;16.50;99.90;;;;;;6251572;28;20479;-64
2022/08/24 04:21:16;;;;;;;2.23;1.50;;;16.50;99.90;;;;;;6250994;28;20471;-64
2022/08/24 04:24:20;;;;;;;3.20;3.00;;;16.50;99.90;;;;;;6250889;28;20494;-64
2022/08/24 04:27:23;;;;;;;2.10;2.00;;;16.50;99.90;;;;;;6251677;28;20471;-64
2022/08/24 04:30:28;;;;;;;3.47;1.63;;;16.50;99.90;;;;;;6254866;28;20467;-64
2022/08/24 04:33:31;;;;;;;2.40;1.83;;;16.50;99.90;;;;;;6256013;28;20467;-64
2022/08/24 04:36:35;;;;;;;1.97;1.50;;;16.50;99.90;;;;;;6258279;28;20490;-64
2022/08/24 04:39:38;;;;;;;1.40;1.30;;;16.60;99.90;;;;;;6259220;28;20474;-64
2022/08/24 04:42:42;;;;;;;3.00;1.40;;;16.60;99.90;;;;;;6258812;28;21082;-64
2022/08/24 04:45:49;;;;;;;2.17;1.60;;;16.60;99.90;;;;;;6258058;28;20813;-64
2022/08/24 04:48:52;;;;;;;1.80;1.70;;;16.70;99.90;;;;;;6256840;28;21265;-64
2022/08/24 04:51:55;;;;;;;1.70;1.60;;;16.70;99.90;;;;;;6256553;28;20486;-64
2022/08/24 04:54:59;;;;;;;1.73;1.63;;;16.70;99.90;;;;;;6254902;28;20474;-65
2022/08/24 04:58:02;;;;;;;1.97;1.77;;;16.80;99.90;;;;;;6256078;28;20449;-64
2022/08/24 05:01:09;;;;;;;1.80;1.70;;;16.80;99.90;;;;;;6255308;28;20469;-64
2022/08/24 05:04:13;;;;;;;2.17;2.00;;;16.90;99.90;;;;;;6256425;28;20515;-64
2022/08/24 05:07:17;;;;;;;2.30;1.80;;;16.90;99.90;;;;;;6255355;28;20470;-64
2022/08/24 05:10:20;;;;;;;3.10;1.90;;;17.00;99.90;;;;;;6254860;28;20569;-65
2022/08/24 05:13:23;;;;;;;1.70;1.50;;;17.10;99.90;;;;;;6254391;28;20478;-65
2022/08/24 05:16:28;;;;;;;3.30;2.00;;;17.00;99.90;;;;;;6252672;28;20490;-65
2022/08/24 05:19:33;;;;;;;3.90;1.43;;;17.20;99.90;;;;;;6254107;28;20476;-65
2022/08/24 05:22:37;;;;;;;5.83;1.60;;;17.20;99.90;;;;;;6253488;28;20478;-65
2022/08/24 05:25:41;;;;;;;2.70;1.80;;;17.30;99.90;;;;;;6253844;28;20974;-65
2022/08/24 05:28:44;;;;;;;2.40;2.20;;;17.30;99.90;;;;;;6253205;28;20474;-65
2022/08/24 05:31:49;;;;;;;3.93;2.23;;;17.40;99.90;;;;;;6249244;28;20478;-65
2022/08/24 05:34:52;;;;;;;2.40;2.20;;;17.50;99.90;;;;;;6252941;28;20479;-65
2022/08/24 05:37:55;;;;;;;4.90;2.67;;;17.40;99.90;;;;;;6253027;28;20790;-65
2022/08/24 05:40:59;;;;;;;2.60;2.20;;;17.50;99.90;;;;;;6251597;28;20303;-65
2022/08/24 05:44:03;;;;;;;2.87;2.20;;;17.70;99.90;;;;;;6253057;28;20228;-65
2022/08/24 05:47:10;;;;;;;8.83;2.50;;;17.80;99.90;;;;;;6253748;28;20494;-65
2022/08/24 05:50:13;;;;;;;2.10;2.00;;;17.90;99.90;;;;;;6253016;28;20471;-65
2022/08/24 05:53:17;;;;;;;3.73;2.20;;;18.20;99.90;;;;;;6252489;28;20467;-64
2022/08/24 05:56:21;;;;;;;4.80;2.27;;;18.40;99.90;;;;;;6252836;28;20244;-64
2022/08/24 05:59:24;;;;;;;2.83;2.27;;;18.70;99.90;;;;;;6253172;28;20466;-65
2022/08/24 06:02:29;;;;;;;2.93;2.23;;;19.00;99.90;;;;;;6253996;28;20242;-64
2022/08/24 06:05:32;;;;;;;2.60;1.90;;;19.30;99.90;;;;;;6251654;28;20286;-65
2022/08/24 06:08:39;;;;;;;2.40;1.80;;;19.70;99.90;;;;;;6252501;28;20239;-64
2022/08/24 06:11:45;;;;;;;5.33;2.03;;;20.10;99.90;;;;;;6242400;28;20295;-64
2022/08/24 06:14:48;;;;;;;4.13;1.97;;;20.60;99.90;;;;;;6252293;28;20237;-64
2022/08/24 06:17:53;;;;;;;3.83;2.00;;;21.20;99.90;;;;;;6252574;28;20232;-64
2022/08/24 06:20:56;;;;;;;1.87;1.70;;;22.00;99.90;;;;;;6252058;28;20232;-64
2022/08/24 06:24:00;;;;;;;3.83;2.10;;;22.50;99.90;;;;;;6252357;28;20239;-64
2022/08/24 06:27:21;;;;;;;3.30;1.90;;;23.10;99.90;;;;;;6251268;28;20236;-64
2022/08/24 06:30:24;;;;;;;3.00;1.90;;;23.80;98.90;;;;;;6251917;28;20228;-64
2022/08/24 06:33:34;;;;;;;6.03;2.67;;;24.30;97.40;;;;;;6251534;28;20232;-64
2022/08/24 06:36:37;;;;;;;7.77;2.13;;;24.80;96.20;;;;;;6251530;28;20236;-64
2022/08/24 06:39:42;;;;;;;11.60;2.43;;;25.30;95.40;;;;;;6252058;28;20236;-65
2022/08/24 06:42:45;;;;;;;4.07;2.67;;;25.80;94.20;;;;;;6251786;28;20235;-65
2022/08/24 06:45:48;;;;;;;4.40;2.13;;;26.50;92.70;;;;;;6251117;28;20239;-65
2022/08/24 06:48:53;;;;;;;5.20;2.57;;;27.10;90.90;;;;;;6251656;28;20238;-65
2022/08/24 06:51:56;;;;;;;7.17;1.87;;;27.40;88.90;;;;;;6251599;28;20228;-64
2022/08/24 06:54:59;;;;;;;3.67;2.23;;;27.70;86.50;;;;;;6250858;28;20228;-64
2022/08/24 06:58:02;;;;;;;3.70;2.13;;;27.90;84.80;;;;;;6249953;28;20536;-64
2022/08/24 07:01:10;;;;;;;5.03;2.33;;;28.10;83.80;;;;;;6250730;28;20207;-66
2022/08/24 07:04:15;;;;;;;3.27;2.03;;;28.30;82.50;;;;;;6251530;28;20294;-65
2022/08/24 07:07:18;;;;;;;2.90;2.40;;;28.60;80.50;;;;;;6251218;28;20239;-65
2022/08/24 07:10:21;;;;;;;2.40;1.90;;;28.80;79.90;;;;;;6250951;28;20235;-65
2022/08/24 07:13:30;;;;;;;3.03;2.30;;;29.20;77.90;;;;;;6250665;28;20668;-65
2022/08/24 07:16:34;;;;;;;2.10;1.90;;;29.70;74.80;;;;;;6250992;28;20236;-65
2022/08/24 07:19:38;;;;;;;3.47;2.30;;;30.00;72.80;;;;;;6250609;28;20231;-66
2022/08/24 07:22:42;;;;;;;3.90;2.47;;;29.90;71.70;;;;;;6251079;28;20232;-65
2022/08/24 07:25:46;;;;;;;4.37;2.10;;;29.70;71.80;;;;;;6250106;28;20558;-66
2022/08/24 07:28:53;;;;;;;2.70;2.03;;;29.80;71.50;;;;;;6250656;28;20220;-67
2022/08/24 07:31:56;;;;;;;4.35;2.22;;;30.80;69.60;;;;;;6250216;28;20227;-66
2022/08/24 07:35:06;;;;;;;2.03;1.80;;;31.80;66.50;;;;;;6250473;28;20234;-66
2022/08/24 07:38:12;;;;;;;3.08;1.95;;;32.90;61.90;;;;;;6250086;28;20232;-66
2022/08/24 07:41:16;;;;;;;2.10;1.90;;;34.00;58.40;;;;;;6241453;28;20245;-66
2022/08/24 07:44:39;;;;;;;1.98;1.60;;;34.50;55.20;;;;;;6250034;28;20251;-66
2022/08/24 07:47:43;;;;;;;2.33;2.03;;;34.50;53.30;;;;;;6250272;28;20235;-66
2022/08/24 07:50:58;;;;;;;3.03;1.90;;;34.50;52.80;;;;;;6250126;28;20224;-66
2022/08/24 07:54:03;;;;;;;3.25;1.60;;;34.60;52.20;;;;;;6250146;28;20231;-66
2022/08/24 07:57:14;;;;;;;1.98;1.77;;;35.80;51.20;;;;;;6239930;28;20231;-66
2022/08/24 08:00:20;;;;;;;1.63;1.52;;;38.00;47.60;;;;;;6237715;28;20220;-65
2022/08/24 08:03:25;;;;;;;2.72;1.58;;;39.80;42.80;;;;;;6233429;28;20700;-64
2022/08/24 08:06:29;;;;;;;4.10;2.63;;;40.80;39.70;;;;;;6237405;28;20857;-65
2022/08/24 08:09:33;;;;;;;4.20;1.50;;;41.70;37.50;;;;;;6249295;28;20568;-65
2022/08/24 08:12:37;;;;;;;2.33;1.50;;;43.00;35.20;;;;;;6249729;28;20215;-65
2022/08/24 08:15:40;;;;;;;1.45;1.30;;;44.40;33.40;;;;;;6247211;28;20660;-65
2022/08/24 08:18:43;;;;;;;1.70;1.60;;;45.10;31.00;;;;;;6242982;28;20223;-65
2022/08/24 08:25:13;;;;;;;2.90;1.40;;;44.50;30.20;;;;;;6249469;28;20223;-66
2022/08/24 08:28:16;;;;;;;3.28;2.97;;;43.40;31.20;;;;;;6248122;28;20537;-66
2022/08/24 08:31:27;;;;;;;4.45;2.33;;;42.70;31.40;;;;;;6250050;28;20235;-65
2022/08/24 08:34:31;;;;;;;1.60;1.50;;;41.30;33.10;;;;;;6249755;28;20678;-65
2022/08/24 08:37:36;;;;;;;2.40;1.90;;;39.60;34.40;;;;;;6249646;28;20663;-65
2022/08/24 08:40:54;;;;;;;2.72;1.67;;;38.10;36.50;;;;;;6246941;28;20219;-65
2022/08/24 08:44:03;;;;;;;2.05;1.80;;;37.40;38.10;;;;;;6239950;28;20235;-66
2022/08/24 08:47:20;;;;;;;1.88;1.63;;;36.80;39.20;;;;;;6249265;28;20705;-65
2022/08/24 08:50:28;;;;;;;7.45;3.75;;;36.90;40.00;;;;;;6249800;28;20224;-65
2022/08/24 08:53:57;;;;;;;11.00;4.90;;;37.10;38.70;;;;;;6249402;28;20692;-65
2022/08/24 08:57:28;;;;;;;5.45;2.67;;;36.50;39.40;;;;;;6225824;28;20228;-66
2022/08/24 09:00:51;;;;;;;2.45;1.90;;;38.20;38.50;;;;;;6222439;28;20307;-66
2022/08/24 09:04:10;;;;;;;1.85;1.48;;;41.30;35.30;;;;;;6225147;28;20601;-65
2022/08/24 09:07:32;;;;;;;1.67;1.42;;;44.50;31.30;;;;;;6241948;28;20227;-65
2022/08/24 09:10:54;;;;;;;2.20;2.00;;;46.70;28.70;;;;;;6242720;28;20562;-65
2022/08/24 09:14:16;;;;;;;1.80;1.70;;;48.40;27.30;;;;;;6240148;28;20222;-66
2022/08/24 09:17:33;;;;;;;1.80;1.58;;;49.10;25.70;;;;;;6238564;28;20232;-66
2022/08/24 09:20:56;;;;;;;2.78;2.58;;;48.30;25.30;;;;;;6237513;28;20560;-65
2022/08/24 09:24:24;;;;;;;1.95;1.50;;;47.20;26.20;;;;;;6248716;28;20224;-65
2022/08/24 09:27:40;;;;;;;2.25;1.25;;;45.60;27.00;;;;;;6243135;28;20220;-65
2022/08/24 09:31:08;;;;;;;2.03;1.63;;;44.10;28.00;;;;;;6237801;28;20225;-65
2022/08/24 09:34:27;;;;;;;1.88;1.58;;;43.00;29.00;;;;;;6247325;28;20212;-64
2022/08/24 09:37:46;;;;;;;1.75;1.65;;;41.60;29.80;;;;;;6243363;28;20243;-64
2022/08/24 09:41:19;;;;;;;2.05;1.65;;;40.80;30.30;;;;;;6250030;28;20223;-63
2022/08/24 09:44:55;;;;;;;1.52;1.38;;;39.90;32.00;;;;;;6235989;28;20652;-64
2022/08/24 09:48:16;;;;;;;1.80;1.60;;;39.10;32.80;;;;;;6234100;28;20242;-64
2022/08/24 09:51:48;;;;;;;3.50;1.83;;;36.80;35.70;;;;;;6238093;28;20224;-65
2022/08/24 09:55:08;;;;;;;2.28;1.45;;;36.20;36.90;;;;;;6227361;28;20319;-64
2022/08/24 09:58:20;;;;;;;5.60;1.95;;;35.60;37.20;;;;;;6227636;28;20292;-64
2022/08/24 10:01:34;;;;;;;2.38;1.80;;;35.00;38.40;;;;;;6227569;28;20229;-64
2022/08/24 10:04:45;;;;;;;1.70;1.60;;;34.50;39.30;;;;;;6227145;28;20537;-66
2022/08/24 10:07:55;;;;;;;3.60;1.55;;;34.20;39.60;;;;;;6239021;28;20530;-66
2022/08/24 10:11:07;;;;;;;2.53;1.90;;;33.90;40.30;;;;;;6236079;28;20230;-64
2022/08/24 10:14:18;;;;;;;2.10;1.60;;;33.70;41.40;;;;;;6246257;28;20231;-65
2022/08/24 10:17:35;;;;;;;2.00;1.80;;;33.60;40.80;;;;;;6240010;28;20243;-66
2022/08/24 10:20:53;;;;;;;1.95;1.65;;;33.50;41.30;;;;;;6236017;28;20223;-65
2022/08/24 10:24:14;;;;;;;1.80;1.58;;;33.40;41.10;;;;;;6240989;28;20768;-65
2022/08/24 10:27:39;;;;;;;2.05;1.85;;;33.20;41.70;;;;;;6234031;28;20225;-65
2022/08/24 10:30:59;;;;;;;2.15;1.95;;;32.90;42.40;;;;;;6236135;28;20240;-65
2022/08/24 10:34:20;;;;;;;4.30;3.08;;;32.40;43.40;;;;;;6245224;28;20224;-66
2022/08/24 10:37:41;;;;;;;2.97;1.90;;;32.40;44.10;;;;;;6244899;28;20282;-67
2022/08/24 10:40:55;;;;;;;2.58;2.20;;;32.40;44.20;;;;;;6250985;28;20230;-67
2022/08/24 10:44:16;;;;;;;4.13;2.35;;;32.40;44.50;;;;;;6249056;28;20231;-66
2022/08/24 10:47:25;;;;;;;3.70;1.70;;;31.80;45.60;;;;;;6248767;28;20225;-65
2022/08/24 10:50:44;;;;;;;2.08;1.77;;;32.10;45.40;;;;;;6251651;28;20718;-65
2022/08/24 10:53:49;;;;;;;3.15;2.10;;;32.50;44.20;;;;;;6231638;28;20228;-65
2022/08/24 10:57:01;;;;;;;2.50;2.30;;;32.60;43.70;;;;;;6244174;28;20248;-65
2022/08/24 11:00:10;;;;;;;2.28;2.15;;;33.00;43.70;;;;;;6235736;28;20370;-65
2022/08/24 11:03:25;;;;;;;2.80;2.22;;;33.40;43.30;;;;;;6234804;28;20366;-65
2022/08/24 11:06:34;;;;;;;2.63;2.40;;;32.90;44.00;;;;;;6238593;28;20242;-65
2022/08/24 11:09:47;;;;;;;1.80;1.70;;;33.20;43.50;;;;;;6242719;28;20286;-65
2022/08/24 11:12:50;;;;;;;2.00;1.85;;;33.40;42.90;;;;;;6245833;28;20224;-65
2022/08/24 11:15:58;;;;;;;2.75;2.50;;;33.60;42.70;;;;;;6242722;28;20228;-65
2022/08/24 11:19:05;;;;;;;1.73;1.63;;;33.70;42.50;;;;;;6242110;28;20232;-64
2022/08/24 11:22:29;;;;;;;1.65;1.55;;;33.70;42.90;;;;;;6235579;28;20192;-65
2022/08/24 11:25:35;;;;;;;2.38;2.17;;;33.50;43.10;;;;;;6233942;28;20232;-65
2022/08/24 11:28:41;;;;;;;2.80;2.60;;;33.70;42.70;;;;;;6237374;28;20229;-65
2022/08/24 11:31:50;;;;;;;2.45;2.05;;;33.50;43.00;;;;;;6242261;28;20556;-68
2022/08/24 11:34:53;;;;;;;2.35;2.15;;;33.70;42.80;;;;;;6241697;28;20231;-69
2022/08/24 11:38:12;;;;;;;2.10;1.90;;;34.10;42.30;;;;;;6249328;28;20286;-68
2022/08/24 11:41:26;;;;;;;2.83;2.42;;;34.10;42.10;;;;;;6248078;28;20228;-68
2022/08/24 11:44:38;;;;;;;3.05;2.10;;;34.10;42.00;;;;;;6249659;28;20238;-66
2022/08/24 11:47:59;;;;;;;2.38;2.05;;;33.70;42.40;;;;;;6233451;28;20565;-67
2022/08/24 11:51:10;;;;;;;2.40;2.10;;;33.40;42.90;;;;;;6234021;28;20311;-67
2022/08/24 11:54:23;;;;;;;2.83;2.63;;;33.70;43.00;;;;;;6234605;28;20224;-68
2022/08/24 11:57:34;;;;;;;2.50;2.30;;;33.30;42.70;;;;;;6238247;28;20842;-68
2022/08/24 12:00:46;;;;;;;2.42;2.22;;;32.40;44.50;;;;;;6237407;28;20695;-65
2022/08/24 12:04:03;;;;;;;7.35;2.47;;;32.30;44.70;;;;;;6232891;28;20228;-64
2022/08/24 12:07:14;;;;;;;2.70;2.50;;;32.20;44.90;;;;;;6233627;28;20221;-64
2022/08/24 12:10:26;;;;;;;2.90;2.47;;;31.90;45.30;;;;;;6225537;28;20227;-66
2022/08/24 12:13:45;;;;;;;2.95;2.65;;;31.70;46.30;;;;;;6242888;28;20315;-65
2022/08/24 12:16:55;;;;;;;2.30;2.10;;;31.60;46.60;;;;;;6236648;28;20228;-64
2022/08/24 12:20:03;;;;;;;2.50;2.30;;;31.60;46.50;;;;;;6241642;28;20224;-64
2022/08/24 12:23:13;;;;;;;2.42;2.15;;;31.60;46.40;;;;;;6241123;28;20224;-65
2022/08/24 12:26:26;;;;;;;2.35;2.15;;;31.60;46.90;;;;;;6235146;28;20227;-64
2022/08/24 12:29:34;;;;;;;2.55;2.03;;;30.90;48.50;;;;;;6233120;28;20662;-64
2022/08/24 12:32:42;;;;;;;3.05;2.13;;;30.40;49.70;;;;;;6237955;28;20225;-64
2022/08/24 12:35:52;;;;;;;2.97;2.67;;;30.40;50.60;;;;;;6241707;28;20232;-64
2022/08/24 12:39:06;;;;;;;2.75;2.53;;;30.40;51.00;;;;;;6238886;28;20255;-63
2022/08/24 12:42:18;;;;;;;2.50;2.30;;;30.50;50.20;;;;;;6249410;28;20228;-64
2022/08/24 12:45:23;;;;;;;3.17;2.88;;;30.80;50.10;;;;;;6233573;28;20225;-65
2022/08/24 12:48:32;;;;;;;2.63;2.38;;;31.00;50.00;;;;;;6250108;28;20244;-65
2022/08/24 12:52:02;;;;;;;2.53;2.33;;;31.30;49.10;;;;;;6237906;28;20224;-64
2022/08/24 12:55:31;;;;;;;2.38;2.17;;;31.30;48.70;;;;;;6238344;28;20243;-64
2022/08/24 12:58:54;;;;;;;2.65;2.45;;;31.40;48.40;;;;;;6225396;28;20242;-65
2022/08/24 13:02:01;;;;;;;3.03;2.72;;;31.60;47.90;;;;;;6240158;28;20223;-65
2022/08/24 13:05:11;;;;;;;4.90;2.33;;;31.80;48.10;;;;;;6270017;28;20260;-63
2022/08/24 13:08:34;;;;;;;2.88;2.50;;;32.00;47.90;;;;;;6259256;28;20224;-63
2022/08/24 13:11:37;;;;;;;3.08;2.13;;;31.90;47.80;;;;;;6254715;28;20244;-63
2022/08/24 13:14:49;;;;;;;3.28;2.30;;;32.00;47.70;;;;;;6260627;28;20232;-63
2022/08/24 13:17:58;;;;;;;2.60;2.40;;;32.20;47.60;;;;;;6248379;28;20245;-64
2022/08/24 13:21:16;;;;;;;3.22;2.38;;;32.00;47.60;;;;;;6252908;28;20271;-65
2022/08/24 13:25:00;;;;;;;3.40;2.90;;;32.10;47.70;;;;;;6253405;28;20228;-65
2022/08/24 13:28:08;;;;;;;2.58;2.38;;;32.20;47.60;;;;;;6253793;28;20227;-64
2022/08/24 13:31:33;;;;;;;3.22;2.95;;;32.10;47.50;;;;;;6253666;28;20210;-65
2022/08/24 13:34:42;;;;;;;3.22;3.03;;;31.80;48.80;;;;;;6253345;28;20586;-66
2022/08/24 13:38:25;;;;;;;2.72;2.38;;;31.60;49.50;;;;;;6269300;28;20562;-63
2022/08/24 13:41:45;;;;;;;2.72;2.53;;;31.30;50.10;;;;;;6259133;28;20235;-65
2022/08/24 13:45:25;;;;;;;4.65;2.90;;;31.00;50.70;;;;;;6250920;28;20585;-64
2022/08/24 13:48:45;;;;;;;3.58;2.85;;;30.90;51.00;;;;;;6247734;28;20224;-65
2022/08/24 13:51:54;;;;;;;3.10;2.88;;;31.10;51.00;;;;;;6250125;28;20232;-64
2022/08/24 13:55:23;;;;;;;3.75;3.45;;;31.10;50.60;;;;;;6249945;28;20236;-64
2022/08/24 13:58:40;;;;;;;3.28;2.97;;;31.00;51.00;;;;;;6252995;28;20239;-64
2022/08/24 14:02:02;;;;;;;3.35;3.05;;;30.70;51.80;;;;;;6252604;28;20228;-64
2022/08/24 14:05:18;;;;;;;4.07;3.78;;;30.40;52.10;;;;;;6223577;28;20247;-64
2022/08/24 14:08:45;;;;;;;4.03;3.42;;;30.40;52.40;;;;;;6228556;28;20229;-65
2022/08/24 14:12:02;;;;;;;4.00;2.70;;;30.00;53.30;;;;;;6243046;28;20228;-65
2022/08/24 14:15:19;;;;;;;4.05;3.72;;;29.80;53.80;;;;;;6252265;28;20256;-65
2022/08/24 14:18:26;;;;;;;4.07;3.67;;;29.70;53.80;;;;;;6252871;28;20216;-65
2022/08/24 14:21:42;;;;;;;4.32;3.92;;;29.90;53.90;;;;;;6252952;28;20238;-66
2022/08/24 14:24:48;;;;;;;4.18;3.80;;;30.00;54.00;;;;;;6252243;28;20236;-64
2022/08/24 14:28:38;;;;;;;5.50;3.97;;;30.00;54.90;;;;;;6252260;28;20234;-66
2022/08/24 14:31:42;;;;;;;3.60;3.40;;;30.00;55.50;;;;;;6217144;28;20220;-64
2022/08/24 14:34:56;;;;;;;3.75;3.45;;;29.90;55.30;;;;;;6251985;28;20238;-66
2022/08/24 14:38:33;;;;;;;5.10;4.57;;;29.90;55.60;;;;;;6251600;28;20304;-64
2022/08/24 14:42:11;;;;;;;4.43;4.07;;;29.70;55.80;;;;;;6252127;28;20228;-65
2022/08/24 14:45:22;;;;;;;5.30;3.97;;;30.00;54.40;;;;;;6230088;28;20278;-66
2022/08/24 14:48:35;;;;;;;5.63;3.97;;;30.30;53.60;;;;;;6251220;28;20228;-66
2022/08/24 14:51:53;;;;;;;4.63;4.22;;;30.40;53.10;;;;;;6251111;28;20246;-66
2022/08/24 14:55:07;;;;;;;4.95;4.45;;;30.50;52.60;;;;;;6250935;28;20246;-65
2022/08/24 14:58:20;;;;;;;4.72;4.10;;;30.40;53.80;;;;;;6251439;28;20232;-64
2022/08/24 15:01:43;;;;;;;4.70;4.30;;;29.50;56.50;;;;;;6252268;28;20309;-65
2022/08/24 15:04:48;;;;;;;5.00;4.60;;;28.80;58.60;;;;;;6251351;28;20232;-64
2022/08/24 15:07:57;;;;;;;5.33;4.83;;;28.30;60.40;;;;;;6242463;28;20224;-65
2022/08/24 15:11:09;;;;;;;4.80;4.47;;;27.90;63.20;;;;;;6251268;28;20799;-64
2022/08/24 15:14:24;;;;;;;7.67;4.60;;;27.50;65.30;;;;;;6251382;28;20227;-64
2022/08/24 15:17:57;;;;;;;5.27;4.40;;;27.00;68.60;;;;;;6251281;28;20690;-65
2022/08/24 15:21:09;;;;;;;4.23;3.93;;;26.50;71.30;;;;;;6252110;28;20234;-64
2022/08/24 15:24:21;;;;;;;5.20;4.70;;;26.60;72.30;;;;;;6251814;28;20322;-64
2022/08/24 15:27:42;;;;;;;5.50;5.07;;;26.70;73.20;;;;;;6251902;28;20311;-64
2022/08/24 15:30:55;;;;;;;4.90;4.50;;;26.80;73.10;;;;;;6250965;28;20314;-64
2022/08/24 15:34:00;;;;;;;4.43;4.13;;;26.80;73.40;;;;;;6252013;28;20242;-64
2022/08/24 15:37:04;;;;;;;4.53;4.23;;;26.90;73.80;;;;;;6251761;28;20240;-64
2022/08/24 15:40:21;;;;;;;5.30;4.80;;;27.00;73.60;;;;;;6251470;28;20634;-64
2022/08/24 15:43:27;;;;;;;4.57;4.17;;;27.00;73.70;;;;;;6251287;28;20250;-64
2022/08/24 15:46:34;;;;;;;5.00;4.50;;;27.00;73.80;;;;;;6250374;28;20243;-64
2022/08/24 15:49:48;;;;;;;5.07;4.67;;;27.00;74.20;;;;;;6251105;28;20346;-65
2022/08/24 15:52:55;;;;;;;5.33;4.83;;;26.80;74.80;;;;;;6251178;28;20223;-65
2022/08/24 15:55:59;;;;;;;5.87;4.80;;;26.80;75.60;;;;;;6251474;28;20231;-65
2022/08/24 15:59:09;;;;;;;5.43;4.97;;;26.80;76.60;;;;;;6251235;28;20242;-65
2022/08/24 16:02:27;;;;;;;5.30;4.90;;;26.70;77.40;;;;;;6250775;28;20223;-68
2022/08/24 16:05:36;;;;;;;5.13;4.73;;;26.60;78.00;;;;;;6265288;28;20655;-70
2022/08/24 16:08:54;;;;;;;5.67;5.17;;;26.50;79.30;;;;;;6250078;28;20238;-67
2022/08/24 16:12:02;;;;;;;5.27;4.77;;;26.50;79.80;;;;;;6227696;28;20558;-65
2022/08/24 16:15:13;;;;;;;6.07;5.60;;;26.50;80.10;;;;;;6228762;28;20242;-66
2022/08/24 16:18:19;;;;;;;5.60;5.20;;;26.60;80.30;;;;;;6228986;28;20240;-65
2022/08/24 16:21:30;;;;;;;4.80;4.30;;;26.60;80.50;;;;;;6272497;28;20668;-65
2022/08/24 16:24:38;;;;;;;5.30;4.90;;;26.70;80.80;;;;;;6278687;28;20227;-66
2022/08/24 16:28:04;;;;;;;5.37;4.87;;;26.70;80.50;;;;;;6281218;28;20249;-65
2022/08/24 16:31:32;;;;;;;6.60;5.90;;;26.80;81.30;;;;;;6280468;28;20277;-65
2022/08/24 16:34:38;;;;;;;5.53;5.00;;;26.70;83.00;;;;;;6280364;28;20223;-65
2022/08/24 16:37:41;;;;;;;6.10;5.50;;;26.50;84.20;;;;;;6281098;28;20223;-64